.
WxDataArchive / Data Records for 2012-11-01
2012-10-31 November 2012 2012-11-02

Data Records for Thursday, 01 November 2012

Time	Temp	Chill	HIndex	Humid	Dewpt	 Wind 	HiWind	WindDir	Rain 	Barom 
-----	----	-----	------	-----	-----	------	------	-------	-----	----- 
00:00	40.6	40.6	40.6	88	37.3	0	2	292	0.00	29.768 
00:05	40.6	40.6	40.6	88	37.3	0	2	292	0.00	29.768 
00:10	40.6	40.6	40.6	88	37.3	0	1	292	0.00	29.768 
00:15	40.6	40.6	40.6	88	37.3	0	1	292	0.00	29.766 
00:20	40.6	40.6	40.6	89	37.6	0	1	292	0.00	29.766 
00:25	40.6	40.6	40.6	89	37.6	0	1	292	0.00	29.766 
00:30	40.6	40.6	40.6	88	37.3	0	2	292	0.00	29.764 
00:35	40.6	40.6	40.6	88	37.3	0	2	292	0.00	29.764 
00:40	40.6	40.6	40.6	88	37.3	0	1	292	0.00	29.764 
00:45	40.8	40.8	40.8	88	37.5	0	2	292	0.00	29.764 
00:50	40.8	40.8	40.8	88	37.5	0	2	292	0.00	29.764 
00:55	40.8	40.8	40.8	88	37.5	0	2	292	0.00	29.764 
01:00	40.8	40.8	40.8	88	37.5	0	2	292	0.00	29.760 
01:05	40.8	40.8	40.8	88	37.5	0	2	292	0.00	29.760 
01:10	40.6	40.6	40.6	88	37.3	0	3	292	0.00	29.760 
01:15	40.6	40.6	40.6	88	37.3	0	1	292	0.00	29.759 
01:20	40.6	40.6	40.6	88	37.3	0	3	292	0.00	29.759 
01:25	40.6	40.6	40.6	88	37.3	0	2	292	0.00	29.759 
01:30	40.6	40.6	40.6	88	37.3	0	2	292	0.00	29.758 
01:35	40.6	40.6	40.6	88	37.3	0	2	292	0.00	29.758 
01:40	40.6	40.6	40.6	88	37.3	0	2	292	0.00	29.758 
01:45	40.6	40.6	40.6	88	37.3	0	3	292	0.00	29.755 
01:50	40.6	40.6	40.6	88	37.3	0	2	292	0.00	29.755 
01:55	40.6	40.6	40.6	88	37.3	0	2	292	0.00	29.755 
02:00	40.6	40.6	40.6	88	37.3	0	2	292	0.00	29.754 
02:05	40.8	40.8	40.8	88	37.5	0	2	292	0.00	29.754 
02:10	40.8	40.8	40.8	88	37.5	0	2	292	0.00	29.754 
02:15	40.9	40.9	40.9	88	37.6	0	2	292	0.00	29.753 
02:20	40.9	40.9	40.9	88	37.6	0	2	292	0.00	29.753 
02:25	40.9	40.9	40.9	87	37.3	0	1	292	0.00	29.753 
02:30	40.9	40.9	40.9	87	37.3	0	1	292	0.00	29.753 
02:35	40.9	40.9	40.9	87	37.3	0	1	292	0.00	29.753 
02:40	40.9	40.9	40.9	87	37.3	0	1	292	0.00	29.753 
02:45	40.9	40.9	40.9	87	37.3	0	1	292	0.00	29.753 
02:50	40.9	40.9	40.9	87	37.3	0	2	292	0.00	29.753 
02:55	40.9	40.9	40.9	87	37.3	0	1	292	0.00	29.753 
03:00	40.8	40.8	40.8	87	37.2	0	2	292	0.00	29.751 
03:05	40.8	40.8	40.8	87	37.2	0	1	292	0.00	29.751 
03:10	40.6	40.6	40.6	87	37.0	0	1	292	0.00	29.751 
03:15	40.6	40.6	40.6	87	37.0	1	3	292	0.00	29.752 
03:20	40.5	40.5	40.5	87	36.9	0	2	292	0.00	29.752 
03:25	40.5	40.5	40.5	87	36.9	0	2	292	0.00	29.752 
03:30	40.3	40.3	40.3	87	36.7	1	3	292	0.00	29.752 
03:35	40.2	40.2	40.2	87	36.6	1	2	292	0.00	29.752 
03:40	40.2	40.2	40.2	87	36.6	1	3	292	0.00	29.752 
03:45	40.1	40.1	40.1	87	36.5	1	3	292	0.00	29.751 
03:50	40.1	40.1	40.1	87	36.5	1	2	292	0.00	29.751 
03:55	40.1	40.1	40.1	87	36.5	1	3	292	0.00	29.751 
04:00	39.9	39.9	39.9	87	36.4	1	3	292	0.00	29.752 
04:05	39.9	39.9	39.9	87	36.4	1	3	270	0.00	29.752 
04:10	39.9	39.9	39.9	87	36.4	1	3	270	0.00	29.752 
04:15	39.8	39.8	39.8	87	36.3	1	3	270	0.00	29.754 
04:20	39.8	39.8	39.8	86	36.0	1	3	270	0.00	29.754 
04:25	39.6	39.6	39.6	86	35.8	1	3	270	0.00	29.754 
04:30	39.6	39.6	39.6	85	35.5	2	3	270	0.00	29.753 
04:35	39.6	39.6	39.6	85	35.5	1	3	270	0.00	29.753 
04:40	39.5	39.5	39.5	84	35.1	1	3	270	0.00	29.753 
04:45	39.5	39.5	39.5	84	35.1	1	3	270	0.00	29.754 
04:50	39.5	39.5	39.5	84	35.1	1	3	270	0.00	29.754 
04:55	39.3	39.3	39.3	83	34.6	1	3	270	0.00	29.754 
05:00	39.3	39.3	39.3	83	34.6	1	2	270	0.00	29.756 
05:05	39.3	39.3	39.3	83	34.6	0	2	270	0.00	29.756 
05:10	39.2	39.2	39.2	83	34.5	0	2	270	0.00	29.756 
05:15	39.1	39.1	39.1	83	34.4	0	2	270	0.00	29.758 
05:20	38.9	38.9	38.9	83	34.2	0	2	270	0.00	29.758 
05:25	38.9	38.9	38.9	83	34.2	0	2	270	0.00	29.758 
05:30	38.8	38.8	38.8	83	34.1	0	3	270	0.00	29.761 
05:35	38.8	38.8	38.8	83	34.1	0	2	270	0.00	29.761 
05:40	38.6	38.6	38.6	83	33.9	0	2	270	0.00	29.761 
05:45	38.5	38.5	38.5	83	33.8	0	2	270	0.00	29.765 
05:50	38.3	38.3	38.3	83	33.6	0	2	270	0.00	29.765 
05:55	38.0	38.0	38.0	83	33.3	0	1	270	0.00	29.765 
06:00	37.9	37.9	37.9	83	33.2	0	1	270	0.00	29.771 
06:05	37.6	37.6	37.6	83	32.9	0	0	---	0.00	29.771 
06:10	37.3	37.3	37.3	83	32.6	0	1	270	0.00	29.771 
06:15	37.2	37.2	37.2	84	32.8	0	1	270	0.00	29.775 
06:20	37.0	37.0	37.0	84	32.6	0	0	---	0.00	29.775 
06:25	36.8	36.8	36.8	84	32.4	0	0	---	0.00	29.775 
06:30	36.5	36.5	36.5	84	32.1	0	0	---	0.00	29.777 
06:35	36.3	36.3	36.3	85	32.2	0	0	---	0.00	29.777 
06:40	36.2	36.2	36.2	85	32.1	0	1	270	0.00	29.777 
06:45	36.0	36.0	36.0	86	32.2	0	0	---	0.00	29.776 
06:50	35.9	35.9	35.9	86	32.1	0	0	---	0.00	29.776 
06:55	35.8	35.8	35.8	86	32.0	0	1	270	0.00	29.776 
07:00	35.6	35.6	35.6	87	32.1	0	0	---	0.00	29.777 
07:05	35.6	35.6	35.6	87	32.1	0	1	270	0.00	29.777 
07:10	35.5	35.5	35.5	87	32.0	0	1	270	0.00	29.777 
07:15	35.3	35.3	35.3	87	31.8	0	1	270	0.00	29.781 
07:20	35.2	35.2	35.2	87	31.7	0	2	270	0.00	29.781 
07:25	35.0	35.0	35.0	87	31.5	0	1	270	0.00	29.781 
07:30	35.0	35.0	35.0	87	31.5	0	1	270	0.00	29.782 
07:35	35.0	35.0	35.0	87	31.5	0	1	270	0.00	29.782 
07:40	34.9	34.9	34.9	87	31.4	0	1	270	0.00	29.782 
07:45	34.9	34.9	34.9	86	31.1	0	1	270	0.00	29.782 
07:50	34.7	34.7	34.7	86	30.9	0	2	270	0.00	29.782 
07:55	34.6	34.6	34.6	86	30.9	0	1	270	0.00	29.782 
08:00	34.3	34.3	34.3	86	30.6	0	1	270	0.00	29.791 
08:05	34.3	34.3	34.3	85	30.3	0	1	270	0.00	29.791 
08:10	34.1	34.1	34.1	85	30.1	0	1	270	0.00	29.791 
08:15	34.0	34.0	34.0	85	30.0	0	1	270	0.00	29.792 
08:20	33.8	33.8	33.8	85	29.8	0	1	270	0.00	29.792 
08:25	33.8	33.8	33.8	85	29.8	0	1	270	0.00	29.792 
08:30	33.8	33.8	33.8	85	29.8	0	1	270	0.00	29.794 
08:35	33.7	33.7	33.7	85	29.7	0	1	270	0.00	29.794 
08:40	33.8	33.8	33.8	85	29.8	0	1	270	0.00	29.794 
08:45	34.0	34.0	34.0	85	30.0	0	2	270	0.00	29.800 
08:50	34.1	34.1	34.1	84	29.8	0	2	270	0.00	29.800 
08:55	34.3	34.3	34.3	84	30.0	0	2	270	0.00	29.800 
09:00	34.6	34.6	34.6	84	30.3	0	2	270	0.00	29.807 
09:05	34.9	34.9	34.9	83	30.3	1	3	270	0.00	29.807 
09:10	35.3	35.3	35.3	82	30.4	0	2	270	0.00	29.807 
09:15	35.6	35.6	35.6	81	30.4	1	2	270	0.00	29.807 
09:20	35.9	35.9	35.9	81	30.6	1	3	270	0.00	29.807 
09:25	36.3	36.3	36.3	80	30.7	2	3	270	0.00	29.807 
09:30	36.6	36.6	36.6	79	30.7	1	3	270	0.00	29.809 
09:35	36.9	36.9	36.9	78	30.7	1	3	270	0.00	29.809 
09:40	37.2	37.2	37.2	77	30.7	2	4	270	0.00	29.809 
09:45	37.6	37.6	37.6	77	31.1	2	3	315	0.00	29.808 
09:50	37.9	37.9	37.9	77	31.3	1	3	315	0.00	29.808 
09:55	38.2	38.2	38.2	76	31.3	2	3	315	0.00	29.808 
10:00	38.5	38.5	38.5	76	31.6	2	4	270	0.00	29.813 
10:05	38.8	38.8	38.8	75	31.6	2	4	292	0.00	29.813 
10:10	39.1	39.1	39.1	74	31.5	2	4	270	0.00	29.813 
10:15	39.3	39.3	39.3	74	31.7	1	4	338	0.00	29.816 
10:20	39.6	39.6	39.6	74	32.0	2	4	338	0.00	29.816 
10:25	40.1	40.1	40.1	73	32.2	1	4	292	0.00	29.816 
10:30	40.3	40.3	40.3	73	32.3	2	5	292	0.00	29.818 
10:35	40.6	40.6	40.6	73	32.6	2	5	315	0.00	29.818 
10:40	41.1	41.1	41.1	73	33.1	2	4	0	0.00	29.818 
10:45	41.3	41.3	41.3	72	33.0	2	4	315	0.00	29.815 
10:50	41.8	41.8	41.8	71	33.1	2	3	315	0.00	29.815 
10:55	42.2	42.2	42.2	71	33.5	2	5	248	0.00	29.815 
11:00	42.5	42.5	42.5	69	33.1	3	9	338	0.00	29.814 
11:05	42.2	42.2	42.2	69	32.8	2	6	338	0.00	29.814 
11:10	42.1	42.1	42.1	70	33.0	2	4	315	0.00	29.814 
11:15	42.1	42.1	42.1	71	33.4	1	3	0	0.00	29.816 
11:20	42.5	42.5	42.5	71	33.8	2	5	338	0.00	29.816 
11:25	42.8	42.8	42.8	68	33.0	2	6	315	0.00	29.816 
11:30	42.5	42.5	42.5	67	32.3	3	6	292	0.00	29.816 
11:35	42.2	42.2	42.2	68	32.4	3	5	315	0.00	29.816 
11:40	42.6	42.6	42.6	69	33.2	2	7	270	0.00	29.816 
11:45	43.3	41.1	43.3	67	33.1	4	9	270	0.00	29.814 
11:50	43.6	43.6	43.6	66	33.0	3	6	0	0.00	29.814 
11:55	44.1	44.1	44.1	65	33.1	3	6	338	0.00	29.814 
12:00	44.6	44.6	44.6	65	33.6	2	5	248	0.00	29.812 
12:05	44.9	44.9	44.9	62	32.7	3	6	270	0.00	29.812 
12:10	45.1	45.1	45.1	61	32.5	3	7	315	0.00	29.812 
12:15	45.2	45.2	45.2	62	33.0	3	5	338	0.00	29.810 
12:20	45.4	45.4	45.4	61	32.7	2	5	315	0.00	29.810 
12:25	45.8	45.8	45.8	61	33.1	2	4	315	0.00	29.810 
12:30	46.2	46.2	46.2	60	33.1	2	5	270	0.00	29.809 
12:35	46.4	46.4	46.4	60	33.3	2	7	270	0.00	29.809 
12:40	46.5	46.5	46.5	62	34.2	2	4	270	0.00	29.809 
12:45	46.7	46.7	46.7	63	34.8	2	7	248	0.00	29.805 
12:50	46.8	46.8	46.8	63	34.9	2	5	248	0.00	29.805 
12:55	46.8	46.8	46.8	63	34.9	2	7	248	0.00	29.805 
13:00	46.5	46.5	46.5	61	33.8	3	7	248	0.00	29.800 
13:05	46.1	46.1	46.1	61	33.4	2	5	248	0.00	29.800 
13:10	46.1	46.1	46.1	62	33.8	2	5	248	0.00	29.800 
13:15	46.4	46.4	46.4	64	34.9	2	6	248	0.00	29.799 
13:20	46.5	46.5	46.5	63	34.6	2	4	270	0.00	29.799 
13:25	46.8	46.8	46.8	62	34.5	2	5	270	0.00	29.799 
13:30	47.0	47.0	47.0	60	33.8	3	5	270	0.00	29.794 
13:35	47.3	47.3	47.3	62	34.9	2	4	248	0.00	29.794 
13:40	47.6	47.6	47.6	60	34.4	2	5	270	0.00	29.794 
13:45	47.3	47.3	47.3	58	33.3	3	7	315	0.00	29.793 
13:50	47.7	47.7	47.7	58	33.7	2	6	248	0.00	29.793 
13:55	47.7	47.7	47.7	57	33.2	3	6	292	0.00	29.793 
14:00	47.7	47.7	47.7	56	32.8	3	6	315	0.00	29.788 
14:05	48.0	48.0	48.0	56	33.1	3	6	270	0.00	29.788 
14:10	48.0	48.0	48.0	56	33.1	3	7	248	0.00	29.788 
14:15	47.7	47.7	47.7	55	32.3	3	5	315	0.00	29.783 
14:20	47.9	47.9	47.9	55	32.5	3	6	270	0.00	29.783 
14:25	48.0	48.0	48.0	56	33.1	2	6	270	0.00	29.783 
14:30	48.5	48.5	48.5	55	33.1	3	6	248	0.00	29.778 
14:35	48.2	48.2	48.2	56	33.2	2	5	270	0.00	29.778 
14:40	48.8	48.8	48.8	54	32.9	3	6	248	0.00	29.778 
14:45	49.2	49.2	49.2	54	33.3	3	6	270	0.00	29.774 
14:50	49.5	49.5	49.5	51	32.1	3	7	292	0.00	29.774 
14:55	49.6	49.6	49.6	50	31.7	3	6	292	0.00	29.774 
15:00	49.8	49.8	49.8	50	31.9	3	5	270	0.00	29.764 
15:05	50.2	50.2	50.2	48	31.3	2	6	270	0.00	29.764 
15:10	50.1	50.1	50.1	47	30.7	3	6	292	0.00	29.764 
15:15	50.1	50.1	50.1	43	28.5	3	6	270	0.00	29.763 
15:20	50.2	50.2	50.2	43	28.6	3	10	315	0.00	29.763 
15:25	50.1	50.1	50.1	42	27.9	2	5	270	0.00	29.763 
15:30	50.1	50.1	50.1	41	27.3	3	6	270	0.00	29.760 
15:35	50.7	50.7	50.7	41	27.9	3	6	270	0.00	29.760 
15:40	50.7	50.7	50.7	40	27.3	3	5	292	0.00	29.760 
15:45	50.5	50.5	50.5	40	27.1	3	6	292	0.00	29.761 
15:50	50.5	50.5	50.5	40	27.1	3	5	292	0.00	29.761 
15:55	50.8	50.8	50.8	39	26.7	3	7	270	0.00	29.761 
16:00	50.5	50.5	50.5	40	27.1	3	6	315	0.00	29.762 
16:05	50.2	50.2	50.2	41	27.4	3	9	292	0.00	29.762 
16:10	49.9	49.9	49.9	41	27.1	2	5	292	0.00	29.762 
16:15	49.9	49.9	49.9	42	27.7	2	7	315	0.00	29.763 
16:20	50.2	50.2	50.2	40	26.8	2	5	270	0.00	29.763 
16:25	50.8	50.8	50.8	38	26.1	4	7	270	0.00	29.763 
16:30	50.8	50.8	50.8	38	26.1	4	7	248	0.00	29.762 
16:35	50.8	50.8	50.8	36	24.8	4	6	292	0.00	29.762 
16:40	50.5	50.5	50.5	37	25.2	3	5	315	0.00	29.762 
16:45	50.7	50.7	50.7	37	25.4	3	6	292	0.00	29.762 
16:50	50.7	50.7	50.7	37	25.4	3	6	292	0.00	29.762 
16:55	50.4	50.4	50.4	35	23.8	3	6	270	0.00	29.762 
17:00	50.4	50.4	50.4	36	24.5	3	5	270	0.00	29.764 
17:05	50.4	50.4	50.4	37	25.1	2	4	292	0.00	29.764 
17:10	50.4	50.4	50.4	36	24.5	3	6	270	0.00	29.764 
17:15	50.2	50.2	50.2	37	24.9	2	4	292	0.00	29.767 
17:20	50.2	50.2	50.2	37	24.9	3	6	270	0.00	29.767 
17:25	50.1	50.1	50.1	38	25.5	2	5	270	0.00	29.767 
17:30	49.9	49.9	49.9	38	25.3	2	5	315	0.00	29.768 
17:35	49.5	49.5	49.5	39	25.6	2	5	338	0.00	29.768 
17:40	49.2	49.2	49.2	39	25.3	2	5	315	0.00	29.768 
17:45	49.1	49.1	49.1	40	25.8	2	5	292	0.00	29.775 
17:50	48.9	48.9	48.9	40	25.7	2	5	292	0.00	29.775 
17:55	48.8	48.8	48.8	40	25.6	2	4	315	0.00	29.775 
18:00	48.6	48.6	48.6	39	24.8	2	5	270	0.00	29.781 
18:05	48.5	48.5	48.5	38	24.1	2	5	270	0.00	29.781 
18:10	48.5	48.5	48.5	39	24.7	2	4	292	0.00	29.781 
18:15	48.5	48.5	48.5	39	24.7	2	5	292	0.00	29.785 
18:20	48.3	48.3	48.3	39	24.5	1	2	338	0.00	29.785 
18:25	48.3	48.3	48.3	39	24.5	1	4	338	0.00	29.785 
18:30	48.2	48.2	48.2	40	25.0	0	3	315	0.00	29.790 
18:35	48.0	48.0	48.0	40	24.8	2	7	315	0.00	29.790 
18:40	47.9	47.9	47.9	40	24.8	2	5	270	0.00	29.790 
18:45	47.7	47.7	47.7	39	24.0	1	4	338	0.00	29.797 
18:50	47.6	47.6	47.6	40	24.5	1	4	315	0.00	29.797 
18:55	47.4	47.4	47.4	40	24.3	1	5	292	0.00	29.797 
19:00	47.3	47.3	47.3	40	24.2	2	4	338	0.00	29.805 
19:05	47.1	47.1	47.1	40	24.0	2	5	315	0.00	29.805 
19:10	47.1	47.1	47.1	41	24.6	2	4	315	0.00	29.805 
19:15	47.0	47.0	47.0	41	24.5	2	4	270	0.00	29.812 
19:20	46.8	46.8	46.8	41	24.4	2	6	315	0.00	29.812 
19:25	46.5	46.5	46.5	42	24.7	1	3	315	0.00	29.812 
19:30	46.4	46.4	46.4	42	24.6	1	2	315	0.00	29.818 
19:35	46.1	46.1	46.1	43	24.9	1	2	315	0.00	29.818 
19:40	45.8	45.8	45.8	43	24.6	1	3	315	0.00	29.818 
19:45	45.7	45.7	45.7	42	23.9	2	6	315	0.00	29.820 
19:50	45.7	45.7	45.7	41	23.4	2	4	338	0.00	29.820 
19:55	45.5	45.5	45.5	42	23.8	1	4	270	0.00	29.820 
20:00	45.4	45.4	45.4	41	23.1	2	5	315	0.00	29.821 
20:05	45.4	45.4	45.4	42	23.7	1	2	315	0.00	29.821 
20:10	45.2	45.2	45.2	42	23.5	1	3	315	0.00	29.821 
20:15	45.2	45.2	45.2	42	23.5	2	6	338	0.00	29.824 
20:20	44.9	44.9	44.9	42	23.2	1	3	292	0.00	29.824 
20:25	44.8	44.8	44.8	43	23.7	1	3	292	0.00	29.824 
20:30	44.6	44.6	44.6	43	23.5	1	4	292	0.00	29.830 
20:35	44.5	44.5	44.5	43	23.4	1	3	292	0.00	29.830 
20:40	44.5	44.5	44.5	43	23.4	1	3	292	0.00	29.830 
20:45	44.3	44.3	44.3	43	23.2	1	4	292	0.00	29.831 
20:50	44.3	44.3	44.3	43	23.2	1	4	338	0.00	29.831 
20:55	44.2	44.2	44.2	43	23.1	1	3	338	0.00	29.831 
21:00	44.1	44.1	44.1	43	23.0	1	4	338	0.00	29.835 
21:05	43.9	43.9	43.9	43	22.9	1	3	338	0.00	29.835 
21:10	43.8	43.8	43.8	43	22.8	1	3	338	0.00	29.835 
21:15	43.6	43.6	43.6	43	22.6	1	2	338	0.00	29.834 
21:20	43.5	43.5	43.5	42	21.9	1	4	338	0.00	29.834 
21:25	43.5	43.5	43.5	42	21.9	1	3	315	0.00	29.834 
21:30	43.3	43.3	43.3	43	22.3	1	3	315	0.00	29.835 
21:35	43.3	43.3	43.3	43	22.3	1	3	315	0.00	29.835 
21:40	43.2	43.2	43.2	43	22.2	1	4	315	0.00	29.835 
21:45	43.2	43.2	43.2	44	22.8	1	2	315	0.00	29.836 
21:50	43.1	43.1	43.1	44	22.7	1	2	315	0.00	29.836 
21:55	43.1	43.1	43.1	45	23.2	0	2	315	0.00	29.836 
22:00	42.9	42.9	42.9	45	23.0	0	2	315	0.00	29.839 
22:05	42.9	42.9	42.9	46	23.6	0	2	315	0.00	29.839 
22:10	42.8	42.8	42.8	46	23.5	0	2	315	0.00	29.839 
22:15	42.8	42.8	42.8	46	23.5	0	2	315	0.00	29.837 
22:20	42.6	42.6	42.6	47	23.8	0	2	315	0.00	29.837 
22:25	42.6	42.6	42.6	47	23.8	0	1	315	0.00	29.837 
22:30	42.5	42.5	42.5	47	23.7	0	2	315	0.00	29.837 
22:35	42.5	42.5	42.5	47	23.7	0	2	315	0.00	29.837 
22:40	42.5	42.5	42.5	48	24.2	1	2	315	0.00	29.837 
22:45	42.3	42.3	42.3	48	24.0	0	2	315	0.00	29.842 
22:50	42.3	42.3	42.3	49	24.5	0	2	315	0.00	29.842 
22:55	42.3	42.3	42.3	50	25.0	0	2	315	0.00	29.842 
23:00	42.3	42.3	42.3	50	25.0	0	2	315	0.00	29.846 
23:05	42.3	42.3	42.3	50	25.0	0	3	315	0.00	29.846 
23:10	42.5	42.5	42.5	50	25.2	1	3	315	0.00	29.846 
23:15	42.3	42.3	42.3	50	25.0	0	2	315	0.00	29.845 
23:20	42.3	42.3	42.3	50	25.0	0	1	315	0.00	29.845 
23:25	42.3	42.3	42.3	50	25.0	0	1	315	0.00	29.845 
23:30	42.2	42.2	42.2	51	25.4	0	2	315	0.00	29.845 
23:35	42.1	42.1	42.1	51	25.3	0	1	315	0.00	29.845 
23:40	41.9	41.9	41.9	51	25.1	0	1	315	0.00	29.845 
23:45	41.9	41.9	41.9	52	25.6	0	2	315	0.00	29.844 
23:50	41.9	41.9	41.9	52	25.6	0	1	315	0.00	29.844 
23:55	41.8	41.8	41.8	53	25.9	0	1	315	0.00	29.844 

CoCoRaHS
IN-AL-39
A2 Web Hosting
Creative Commons License
GoDaddy
search engine by freefind advanced

loaded 2018-11-16 23:58:08 • last modified 2010-11-18 10:43:29
Privacy PolicyDisclaimer
• wx.awcolley.com is powered by PmWiki v.2002016 •
• all content (unless otherwise noted) © 2018 A W Colley